sensor_id;sensor_type;location;lat;lon;timestamp;pressure;altitude;pressure_sealevel;temperature;humidity
3254;BME280;1639;42.804;23.342;2023-02-18T00:01:15;74947.91;;;-148.52;69.60
3254;BME280;1639;42.804;23.342;2023-02-18T00:03:41;74943.75;;;-148.52;72.14
3254;BME280;1639;42.804;23.342;2023-02-18T00:06:27;74925.16;;;-148.52;73.28
3254;BME280;1639;42.804;23.342;2023-02-18T00:08:53;74906.53;;;-148.52;73.51
3254;BME280;1639;42.804;23.342;2023-02-18T00:11:20;74885.81;;;-148.52;72.96
3254;BME280;1639;42.804;23.342;2023-02-18T00:13:53;74875.47;;;-148.52;71.39
3254;BME280;1639;42.804;23.342;2023-02-18T00:16:20;74865.13;;;-148.52;71.21
3254;BME280;1639;42.804;23.342;2023-02-18T00:18:46;74850.66;;;-148.52;70.43
3254;BME280;1639;42.804;23.342;2023-02-18T00:21:12;74850.66;;;-148.52;69.54
3254;BME280;1639;42.804;23.342;2023-02-18T00:23:38;74852.72;;;-148.52;69.37
3254;BME280;1639;42.804;23.342;2023-02-18T00:26:04;74840.31;;;-148.52;67.96
3254;BME280;1639;42.804;23.342;2023-02-18T00:28:30;74846.50;;;-148.52;67.33
3254;BME280;1639;42.804;23.342;2023-02-18T00:30:56;74865.13;;;-148.52;67.25
3254;BME280;1639;42.804;23.342;2023-02-18T00:33:21;74877.56;;;-148.52;68.56
3254;BME280;1639;42.804;23.342;2023-02-18T00:35:47;74881.69;;;-148.52;69.19
3254;BME280;1639;42.804;23.342;2023-02-18T00:38:12;74883.75;;;-148.52;68.06
3254;BME280;1639;42.804;23.342;2023-02-18T00:40:39;74879.63;;;-148.52;68.23
3254;BME280;1639;42.804;23.342;2023-02-18T00:43:04;74889.97;;;-148.52;67.99
3254;BME280;1639;42.804;23.342;2023-02-18T00:45:30;74892.03;;;-148.52;66.90
3254;BME280;1639;42.804;23.342;2023-02-18T00:47:55;74925.16;;;-148.52;67.17
3254;BME280;1639;42.804;23.342;2023-02-18T00:50:20;74916.88;;;-148.52;67.41
3254;BME280;1639;42.804;23.342;2023-02-18T00:52:46;74947.91;;;-148.52;67.48
3254;BME280;1639;42.804;23.342;2023-02-18T00:55:11;74960.31;;;-148.52;66.55
3254;BME280;1639;42.804;23.342;2023-02-18T00:57:37;74976.88;;;-148.52;67.87
3254;BME280;1639;42.804;23.342;2023-02-18T01:00:04;74958.25;;;-148.52;67.65
3254;BME280;1639;42.804;23.342;2023-02-18T01:02:30;74966.53;;;-148.52;66.97
3254;BME280;1639;42.804;23.342;2023-02-18T01:04:56;74993.44;;;-148.52;68.71
3254;BME280;1639;42.804;23.342;2023-02-18T01:07:21;74989.28;;;-148.52;70.22
3254;BME280;1639;42.804;23.342;2023-02-18T01:09:47;75012.06;;;-148.52;71.49
3254;BME280;1639;42.804;23.342;2023-02-18T01:12:12;75012.06;;;-148.52;72.05
3254;BME280;1639;42.804;23.342;2023-02-18T01:14:38;75057.56;;;-148.52;73.85
3254;BME280;1639;42.804;23.342;2023-02-18T01:17:03;75045.16;;;-148.52;76.55
3254;BME280;1639;42.804;23.342;2023-02-18T01:19:28;75030.66;;;-148.52;75.54
3254;BME280;1639;42.804;23.342;2023-02-18T01:21:54;75045.16;;;-148.52;74.23
3254;BME280;1639;42.804;23.342;2023-02-18T01:24:19;75045.16;;;-148.52;73.73
3254;BME280;1639;42.804;23.342;2023-02-18T01:26:45;75047.22;;;-148.52;75.71
3254;BME280;1639;42.804;23.342;2023-02-18T01:29:10;75053.44;;;-148.52;75.90
3254;BME280;1639;42.804;23.342;2023-02-18T01:31:36;75047.22;;;-148.52;75.72
3254;BME280;1639;42.804;23.342;2023-02-18T01:34:01;75041.03;;;-148.52;76.00
3254;BME280;1639;42.804;23.342;2023-02-18T01:36:26;75036.88;;;-148.52;76.31
3254;BME280;1639;42.804;23.342;2023-02-18T01:38:52;75016.19;;;-148.52;75.57
3254;BME280;1639;42.804;23.342;2023-02-18T01:41:18;75026.53;;;-148.52;75.05
3254;BME280;1639;42.804;23.342;2023-02-18T01:43:44;75001.69;;;-148.52;74.09
3254;BME280;1639;42.804;23.342;2023-02-18T01:46:13;74999.63;;;-148.52;72.65
3254;BME280;1639;42.804;23.342;2023-02-18T01:48:49;74999.63;;;-148.52;73.05
3254;BME280;1639;42.804;23.342;2023-02-18T01:51:38;75003.78;;;-148.52;73.20
3254;BME280;1639;42.804;23.342;2023-02-18T01:59:50;74997.56;;;-148.52;73.59
3254;BME280;1639;42.804;23.342;2023-02-18T02:02:20;75003.78;;;-148.52;72.00
3254;BME280;1639;42.804;23.342;2023-02-18T02:04:47;75009.97;;;-148.52;70.30
3254;BME280;1639;42.804;23.342;2023-02-18T02:07:14;75020.31;;;-148.52;69.56
3254;BME280;1639;42.804;23.342;2023-02-18T02:09:40;75053.44;;;-148.52;69.42
3254;BME280;1639;42.804;23.342;2023-02-18T02:12:16;75086.53;;;-148.52;69.51
3254;BME280;1639;42.804;23.342;2023-02-18T02:28:40;75152.75;;;-148.52;73.32
3254;BME280;1639;42.804;23.342;2023-02-18T02:42:49;75154.81;;;-148.52;75.18
3254;BME280;1639;42.804;23.342;2023-02-18T02:50:46;75136.22;;;-148.52;72.90
3254;BME280;1639;42.804;23.342;2023-02-18T02:53:20;75136.22;;;-148.52;72.53
3254;BME280;1639;42.804;23.342;2023-02-18T02:55:47;75127.94;;;-148.52;72.70
3254;BME280;1639;42.804;23.342;2023-02-18T02:58:17;75142.41;;;-148.52;73.45
3254;BME280;1639;42.804;23.342;2023-02-18T03:09:20;75161.03;;;-148.52;75.09
3254;BME280;1639;42.804;23.342;2023-02-18T03:17:34;75204.50;;;-148.52;77.48
3254;BME280;1639;42.804;23.342;2023-02-18T03:20:14;75185.88;;;-148.52;78.91
3254;BME280;1639;42.804;23.342;2023-02-18T03:22:50;75173.47;;;-148.52;80.52
3254;BME280;1639;42.804;23.342;2023-02-18T03:25:16;75148.63;;;-148.52;83.26
3254;BME280;1639;42.804;23.342;2023-02-18T03:27:46;75127.94;;;-148.52;85.88
3254;BME280;1639;42.804;23.342;2023-02-18T03:30:19;75107.22;;;-148.52;83.68
3254;BME280;1639;42.804;23.342;2023-02-18T03:32:48;75088.63;;;-148.52;82.91
3254;BME280;1639;42.804;23.342;2023-02-18T03:35:16;75063.78;;;-148.52;81.65
3254;BME280;1639;42.804;23.342;2023-02-18T03:37:48;75059.63;;;-148.52;79.95
3254;BME280;1639;42.804;23.342;2023-02-18T03:40:17;75074.13;;;-148.52;78.26
3254;BME280;1639;42.804;23.342;2023-02-18T03:42:42;75080.34;;;-148.52;78.58
3254;BME280;1639;42.804;23.342;2023-02-18T03:45:08;75090.69;;;-148.52;79.23
3254;BME280;1639;42.804;23.342;2023-02-18T03:47:34;75086.53;;;-148.52;78.46
3254;BME280;1639;42.804;23.342;2023-02-18T03:49:59;75084.47;;;-148.52;78.23
3254;BME280;1639;42.804;23.342;2023-02-18T03:52:25;75082.41;;;-148.52;78.80
3254;BME280;1639;42.804;23.342;2023-02-18T03:54:50;75065.84;;;-148.52;77.81
3254;BME280;1639;42.804;23.342;2023-02-18T03:57:15;75070.00;;;-148.52;76.37
3254;BME280;1639;42.804;23.342;2023-02-18T03:59:41;75067.91;;;-148.52;75.71
3254;BME280;1639;42.804;23.342;2023-02-18T04:02:06;75080.34;;;-148.52;75.56
3254;BME280;1639;42.804;23.342;2023-02-18T04:04:32;75080.34;;;-148.52;76.04
3254;BME280;1639;42.804;23.342;2023-02-18T04:06:57;75090.69;;;-148.52;75.88
3254;BME280;1639;42.804;23.342;2023-02-18T04:09:23;75086.53;;;-148.52;75.84
3254;BME280;1639;42.804;23.342;2023-02-18T04:11:48;75090.69;;;-148.52;75.87
3254;BME280;1639;42.804;23.342;2023-02-18T04:14:13;75105.16;;;-148.52;76.64
3254;BME280;1639;42.804;23.342;2023-02-18T04:16:39;75094.81;;;-148.52;78.51
3254;BME280;1639;42.804;23.342;2023-02-18T04:19:05;75088.63;;;-148.52;77.50
3254;BME280;1639;42.804;23.342;2023-02-18T04:21:31;75098.97;;;-148.52;77.11
3254;BME280;1639;42.804;23.342;2023-02-18T04:23:57;75103.09;;;-148.52;76.54
3254;BME280;1639;42.804;23.342;2023-02-18T04:26:22;75111.38;;;-148.52;76.54
3254;BME280;1639;42.804;23.342;2023-02-18T04:28:48;75109.31;;;-148.52;76.28
3254;BME280;1639;42.804;23.342;2023-02-18T04:31:13;75136.22;;;-148.52;76.12
3254;BME280;1639;42.804;23.342;2023-02-18T04:33:39;75173.47;;;-148.52;78.29
3254;BME280;1639;42.804;23.342;2023-02-18T04:36:05;75235.53;;;-148.52;81.18
3254;BME280;1639;42.804;23.342;2023-02-18T04:38:31;75208.63;;;-148.52;79.98
3254;BME280;1639;42.804;23.342;2023-02-18T04:40:56;75218.97;;;-148.52;81.63
3254;BME280;1639;42.804;23.342;2023-02-18T04:43:21;75214.84;;;-148.52;81.79
3254;BME280;1639;42.804;23.342;2023-02-18T04:45:47;75239.69;;;-148.52;82.55
3254;BME280;1639;42.804;23.342;2023-02-18T04:48:12;75223.13;;;-148.52;84.20
3254;BME280;1639;42.804;23.342;2023-02-18T04:50:38;75223.13;;;-148.52;84.15
3254;BME280;1639;42.804;23.342;2023-02-18T04:53:03;75212.78;;;-148.52;84.80
3254;BME280;1639;42.804;23.342;2023-02-18T04:55:28;75206.56;;;-148.52;86.12
3254;BME280;1639;42.804;23.342;2023-02-18T04:57:54;75177.59;;;-148.52;85.92
3254;BME280;1639;42.804;23.342;2023-02-18T05:00:19;75161.03;;;-148.52;84.88
3254;BME280;1639;42.804;23.342;2023-02-18T05:02:45;75142.41;;;-148.52;83.87
3254;BME280;1639;42.804;23.342;2023-02-18T05:05:11;75132.06;;;-148.52;82.66
3254;BME280;1639;42.804;23.342;2023-02-18T05:07:38;75115.50;;;-148.52;82.68
3254;BME280;1639;42.804;23.342;2023-02-18T05:10:05;75103.09;;;-148.52;81.40
3254;BME280;1639;42.804;23.342;2023-02-18T05:12:30;75094.81;;;-148.52;81.31
3254;BME280;1639;42.804;23.342;2023-02-18T05:14:56;75090.69;;;-148.52;82.62
3254;BME280;1639;42.804;23.342;2023-02-18T05:17:21;75115.50;;;-148.52;82.19
3254;BME280;1639;42.804;23.342;2023-02-18T05:19:46;75096.88;;;-148.52;83.38
3254;BME280;1639;42.804;23.342;2023-02-18T05:22:12;75086.53;;;-148.52;84.20
3254;BME280;1639;42.804;23.342;2023-02-18T05:24:37;75094.81;;;-148.52;83.36
3254;BME280;1639;42.804;23.342;2023-02-18T05:27:03;75080.34;;;-148.52;82.80
3254;BME280;1639;42.804;23.342;2023-02-18T05:29:28;75082.41;;;-148.52;82.15
3254;BME280;1639;42.804;23.342;2023-02-18T05:31:53;75074.13;;;-148.52;81.70
3254;BME280;1639;42.804;23.342;2023-02-18T05:34:19;75063.78;;;-148.52;81.38
3254;BME280;1639;42.804;23.342;2023-02-18T05:36:44;75055.50;;;-148.52;80.68
3254;BME280;1639;42.804;23.342;2023-02-18T05:39:10;75055.50;;;-148.52;80.33
3254;BME280;1639;42.804;23.342;2023-02-18T05:41:35;75076.19;;;-148.52;81.39
3254;BME280;1639;42.804;23.342;2023-02-18T05:44:00;75086.53;;;-148.52;81.87
3254;BME280;1639;42.804;23.342;2023-02-18T05:46:44;75061.72;;;-148.52;81.17
3254;BME280;1639;42.804;23.342;2023-02-18T05:49:10;75051.38;;;-148.52;80.17
3254;BME280;1639;42.804;23.342;2023-02-18T05:51:36;75036.88;;;-148.52;80.01
3254;BME280;1639;42.804;23.342;2023-02-18T05:54:01;75032.75;;;-148.52;79.78
3254;BME280;1639;42.804;23.342;2023-02-18T05:56:26;75026.53;;;-148.52;80.78
3254;BME280;1639;42.804;23.342;2023-02-18T05:58:52;75018.25;;;-148.52;80.33
3254;BME280;1639;42.804;23.342;2023-02-18T06:01:17;75007.91;;;-148.52;79.72
3254;BME280;1639;42.804;23.342;2023-02-18T06:03:42;74995.50;;;-148.52;78.51
3254;BME280;1639;42.804;23.342;2023-02-18T06:06:08;74997.56;;;-148.52;77.69
3254;BME280;1639;42.804;23.342;2023-02-18T06:08:33;74995.50;;;-148.52;76.91
3254;BME280;1639;42.804;23.342;2023-02-18T06:10:59;75003.78;;;-148.52;77.03
3254;BME280;1639;42.804;23.342;2023-02-18T06:13:25;74983.06;;;-148.52;76.26
3254;BME280;1639;42.804;23.342;2023-02-18T06:15:50;74981.00;;;-148.52;76.65
3254;BME280;1639;42.804;23.342;2023-02-18T06:18:17;74989.28;;;-148.52;77.79
3254;BME280;1639;42.804;23.342;2023-02-18T06:20:42;74997.56;;;-148.52;78.31
3254;BME280;1639;42.804;23.342;2023-02-18T06:23:08;75016.19;;;-148.52;80.81
3254;BME280;1639;42.804;23.342;2023-02-18T06:25:33;75049.28;;;-148.52;81.98
3254;BME280;1639;42.804;23.342;2023-02-18T06:27:59;75022.41;;;-148.52;82.72
3254;BME280;1639;42.804;23.342;2023-02-18T06:30:24;75020.31;;;-148.52;82.99
3254;BME280;1639;42.804;23.342;2023-02-18T06:32:50;74987.22;;;-148.52;82.35
3254;BME280;1639;42.804;23.342;2023-02-18T06:35:15;74968.59;;;-148.52;80.42
3254;BME280;1639;42.804;23.342;2023-02-18T06:37:40;74972.72;;;-148.52;80.19
3254;BME280;1639;42.804;23.342;2023-02-18T06:40:06;74970.66;;;-148.52;80.65
3254;BME280;1639;42.804;23.342;2023-02-18T06:42:32;74962.38;;;-148.52;81.17
3254;BME280;1639;42.804;23.342;2023-02-18T06:44:57;74929.28;;;-148.52;81.09
3254;BME280;1639;42.804;23.342;2023-02-18T06:47:23;74908.59;;;-148.52;80.44
3254;BME280;1639;42.804;23.342;2023-02-18T06:49:48;74900.31;;;-148.52;79.16
3254;BME280;1639;42.804;23.342;2023-02-18T06:52:13;74867.22;;;-148.52;77.78
3254;BME280;1639;42.804;23.342;2023-02-18T06:54:39;74846.50;;;-148.52;76.18
3254;BME280;1639;42.804;23.342;2023-02-18T06:57:04;74842.38;;;-148.52;76.21
3254;BME280;1639;42.804;23.342;2023-02-18T06:59:30;74819.63;;;-148.52;76.10
3254;BME280;1639;42.804;23.342;2023-02-18T07:01:55;74811.34;;;-148.52;74.24
3254;BME280;1639;42.804;23.342;2023-02-18T07:04:21;74803.06;;;-148.52;74.63
3254;BME280;1639;42.804;23.342;2023-02-18T07:06:46;74776.16;;;-148.52;73.37
3254;BME280;1639;42.804;23.342;2023-02-18T07:09:11;74788.56;;;-148.52;73.93
3254;BME280;1639;42.804;23.342;2023-02-18T07:11:37;74774.09;;;-148.52;73.34
3254;BME280;1639;42.804;23.342;2023-02-18T07:14:02;74738.91;;;-148.52;73.75
3254;BME280;1639;42.804;23.342;2023-02-18T07:16:27;74691.31;;;-148.52;73.68
3254;BME280;1639;42.804;23.342;2023-02-18T07:18:54;74678.91;;;-148.52;72.07
3254;BME280;1639;42.804;23.342;2023-02-18T07:21:19;74664.44;;;-148.52;69.31
3254;BME280;1639;42.804;23.342;2023-02-18T07:23:45;74647.88;;;-148.52;68.61
3254;BME280;1639;42.804;23.342;2023-02-18T07:26:12;74647.88;;;-148.52;68.84
3254;BME280;1639;42.804;23.342;2023-02-18T07:28:38;74627.19;;;-148.52;68.80
3254;BME280;1639;42.804;23.342;2023-02-18T07:31:04;74608.56;;;-148.52;69.02
3254;BME280;1639;42.804;23.342;2023-02-18T07:33:30;74581.66;;;-148.52;68.11
3254;BME280;1639;42.804;23.342;2023-02-18T07:35:58;74565.13;;;-148.52;67.84
3254;BME280;1639;42.804;23.342;2023-02-18T07:38:24;74556.84;;;-148.52;67.15
3254;BME280;1639;42.804;23.342;2023-02-18T07:40:50;74538.22;;;-148.52;67.90
3254;BME280;1639;42.804;23.342;2023-02-18T07:43:16;74519.59;;;-148.52;67.49
3254;BME280;1639;42.804;23.342;2023-02-18T07:45:41;74490.63;;;-148.52;67.13
3254;BME280;1639;42.804;23.342;2023-02-18T07:48:07;74469.94;;;-148.52;66.33
3254;BME280;1639;42.804;23.342;2023-02-18T07:50:33;74434.78;;;-148.52;66.51
3254;BME280;1639;42.804;23.342;2023-02-18T07:53:02;74412.00;;;-148.52;64.81
3254;BME280;1639;42.804;23.342;2023-02-18T07:55:27;74387.19;;;-148.52;65.34
3254;BME280;1639;42.804;23.342;2023-02-18T08:00:45;74232.00;;;-148.52;62.91
3254;BME280;1639;42.804;23.342;2023-02-18T08:03:15;74132.72;;;-148.52;55.65
3254;BME280;1639;42.804;23.342;2023-02-18T08:05:41;74014.78;;;-148.52;51.72
3254;BME280;1639;42.804;23.342;2023-02-18T08:08:07;73952.72;;;-148.52;50.17
3254;BME280;1639;42.804;23.342;2023-02-18T08:10:33;73925.84;;;-148.52;48.12
3254;BME280;1639;42.804;23.342;2023-02-18T08:12:59;73903.09;;;-148.52;47.10
3254;BME280;1639;42.804;23.342;2023-02-18T08:15:24;73843.09;;;-148.52;46.05
3254;BME280;1639;42.804;23.342;2023-02-18T08:17:49;73824.47;;;-148.52;45.02
3254;BME280;1639;42.804;23.342;2023-02-18T08:20:15;73822.41;;;-148.52;44.37
3254;BME280;1639;42.804;23.342;2023-02-18T08:22:40;73830.69;;;-148.52;42.76
3254;BME280;1639;42.804;23.342;2023-02-18T08:25:06;73824.47;;;-148.52;42.94
3254;BME280;1639;42.804;23.342;2023-02-18T08:27:31;73822.41;;;-148.52;42.84
3254;BME280;1639;42.804;23.342;2023-02-18T08:29:57;73818.25;;;-148.52;43.20
3254;BME280;1639;42.804;23.342;2023-02-18T08:32:26;73812.06;;;-148.52;43.44
3254;BME280;1639;42.804;23.342;2023-02-18T08:34:51;73820.34;;;-148.52;43.06
3254;BME280;1639;42.804;23.342;2023-02-18T08:37:17;73822.41;;;-148.52;43.60
3254;BME280;1639;42.804;23.342;2023-02-18T08:39:42;73812.06;;;-148.52;43.56
3254;BME280;1639;42.804;23.342;2023-02-18T08:42:08;73812.06;;;-148.52;43.05
3254;BME280;1639;42.804;23.342;2023-02-18T08:44:33;73807.94;;;-148.52;43.14
3254;BME280;1639;42.804;23.342;2023-02-18T08:46:59;73807.94;;;-148.52;42.87
3254;BME280;1639;42.804;23.342;2023-02-18T08:49:24;73803.78;;;-148.52;42.96
3254;BME280;1639;42.804;23.342;2023-02-18T08:51:49;73799.66;;;-148.52;43.10
3254;BME280;1639;42.804;23.342;2023-02-18T08:54:16;73789.31;;;-148.52;43.57
3254;BME280;1639;42.804;23.342;2023-02-18T08:56:42;73781.03;;;-148.52;43.34
3254;BME280;1639;42.804;23.342;2023-02-18T08:59:07;73774.81;;;-148.52;42.59
3254;BME280;1639;42.804;23.342;2023-02-18T09:01:33;73766.56;;;-148.52;42.64
3254;BME280;1639;42.804;23.342;2023-02-18T09:03:58;73750.00;;;-148.52;42.44
3254;BME280;1639;42.804;23.342;2023-02-18T09:06:24;73752.06;;;-148.52;42.26
3254;BME280;1639;42.804;23.342;2023-02-18T09:08:49;73745.88;;;-148.52;42.67
3254;BME280;1639;42.804;23.342;2023-02-18T09:11:15;73745.88;;;-148.52;42.21
3254;BME280;1639;42.804;23.342;2023-02-18T09:13:41;73735.53;;;-148.52;42.14
3254;BME280;1639;42.804;23.342;2023-02-18T09:16:11;73723.09;;;-148.52;41.71
3254;BME280;1639;42.804;23.342;2023-02-18T09:18:37;73692.09;;;-148.52;40.53
3254;BME280;1639;42.804;23.342;2023-02-18T09:21:05;73665.19;;;-148.52;39.22
3254;BME280;1639;42.804;23.342;2023-02-18T09:23:32;73634.16;;;-148.52;39.28
3254;BME280;1639;42.804;23.342;2023-02-18T09:25:58;73596.94;;;-148.52;37.65
3254;BME280;1639;42.804;23.342;2023-02-18T09:28:24;73547.28;;;-148.52;37.56
3254;BME280;1639;42.804;23.342;2023-02-18T09:30:50;73526.59;;;-148.52;37.32
3254;BME280;1639;42.804;23.342;2023-02-18T09:33:17;73524.53;;;-148.52;37.00
3254;BME280;1639;42.804;23.342;2023-02-18T09:35:44;73510.06;;;-148.52;35.28
3254;BME280;1639;42.804;23.342;2023-02-18T09:38:10;73489.38;;;-148.52;35.82
3254;BME280;1639;42.804;23.342;2023-02-18T09:40:41;73472.81;;;-148.52;34.85
3254;BME280;1639;42.804;23.342;2023-02-18T09:43:17;73460.41;;;-148.52;34.69
3254;BME280;1639;42.804;23.342;2023-02-18T09:45:43;73464.53;;;-148.52;33.91
3254;BME280;1639;42.804;23.342;2023-02-18T09:48:09;73485.22;;;-148.52;34.37
3254;BME280;1639;42.804;23.342;2023-02-18T09:50:35;73499.72;;;-148.52;34.47
3254;BME280;1639;42.804;23.342;2023-02-18T09:53:02;73493.50;;;-148.52;34.71
3254;BME280;1639;42.804;23.342;2023-02-18T09:55:32;73476.97;;;-148.52;34.61
3254;BME280;1639;42.804;23.342;2023-02-18T09:58:03;73468.69;;;-148.52;34.14
3254;BME280;1639;42.804;23.342;2023-02-18T10:00:33;73485.22;;;-148.52;34.92
3254;BME280;1639;42.804;23.342;2023-02-18T10:03:06;73476.97;;;-148.52;35.23
3254;BME280;1639;42.804;23.342;2023-02-18T10:05:35;73470.75;;;-148.52;34.78
3254;BME280;1639;42.804;23.342;2023-02-18T10:08:04;73474.88;;;-148.52;34.78
3254;BME280;1639;42.804;23.342;2023-02-18T10:10:45;73456.28;;;-148.52;34.65
3254;BME280;1639;42.804;23.342;2023-02-18T10:13:16;73390.09;;;-148.52;35.36
3254;BME280;1639;42.804;23.342;2023-02-18T10:15:43;73352.84;;;-148.52;34.60
3254;BME280;1639;42.804;23.342;2023-02-18T10:18:38;73317.69;;;-148.52;33.99
3254;BME280;1639;42.804;23.342;2023-02-18T10:21:13;73319.75;;;-148.52;33.74
3254;BME280;1639;42.804;23.342;2023-02-18T10:26:19;73340.44;;;-148.52;33.87
3254;BME280;1639;42.804;23.342;2023-02-18T10:28:45;73317.69;;;-148.52;34.04
3254;BME280;1639;42.804;23.342;2023-02-18T10:31:17;73274.25;;;-148.52;33.66
3254;BME280;1639;42.804;23.342;2023-02-18T10:34:10;73245.28;;;-148.52;33.57
3254;BME280;1639;42.804;23.342;2023-02-18T10:36:43;73230.81;;;-148.52;32.92
3254;BME280;1639;42.804;23.342;2023-02-18T10:39:18;73220.47;;;-148.52;32.38
3254;BME280;1639;42.804;23.342;2023-02-18T10:41:53;73203.94;;;-148.52;32.49
3254;BME280;1639;42.804;23.342;2023-02-18T10:44:42;73170.84;;;-148.52;32.27
3254;BME280;1639;42.804;23.342;2023-02-18T10:47:22;73174.97;;;-148.52;32.73
3254;BME280;1639;42.804;23.342;2023-02-18T10:50:00;73183.25;;;-148.52;32.46
3254;BME280;1639;42.804;23.342;2023-02-18T10:52:29;73174.97;;;-148.52;32.47
3254;BME280;1639;42.804;23.342;2023-02-18T10:55:01;73179.09;;;-148.52;32.38
3254;BME280;1639;42.804;23.342;2023-02-18T10:57:28;73160.50;;;-148.52;33.54
3254;BME280;1639;42.804;23.342;2023-02-18T11:02:38;73166.69;;;-148.52;33.05
3254;BME280;1639;42.804;23.342;2023-02-18T11:05:24;73135.66;;;-148.52;32.58
3254;BME280;1639;42.804;23.342;2023-02-18T11:07:52;73137.75;;;-148.52;32.79
3254;BME280;1639;42.804;23.342;2023-02-18T11:10:32;73117.06;;;-148.52;33.39
3254;BME280;1639;42.804;23.342;2023-02-18T11:13:01;73096.38;;;-148.52;32.24
3254;BME280;1639;42.804;23.342;2023-02-18T11:15:28;73098.44;;;-148.52;32.14
3254;BME280;1639;42.804;23.342;2023-02-18T11:17:56;73083.97;;;-148.52;32.42
3254;BME280;1639;42.804;23.342;2023-02-18T11:20:36;73090.16;;;-148.52;32.45
3254;BME280;1639;42.804;23.342;2023-02-18T11:25:34;73077.75;;;-148.52;32.12
3254;BME280;1639;42.804;23.342;2023-02-18T11:28:05;73079.84;;;-148.52;32.59
3254;BME280;1639;42.804;23.342;2023-02-18T11:35:55;73088.09;;;-148.52;32.90
3254;BME280;1639;42.804;23.342;2023-02-18T11:38:41;73073.63;;;-148.52;32.95
3254;BME280;1639;42.804;23.342;2023-02-18T11:41:10;73075.69;;;-148.52;32.79
3254;BME280;1639;42.804;23.342;2023-02-18T11:43:41;73071.56;;;-148.52;33.43
3254;BME280;1639;42.804;23.342;2023-02-18T11:46:14;73055.00;;;-148.52;32.86
3254;BME280;1639;42.804;23.342;2023-02-18T11:48:40;73050.88;;;-148.52;33.20
3254;BME280;1639;42.804;23.342;2023-02-18T11:51:17;73036.41;;;-148.52;32.88
3254;BME280;1639;42.804;23.342;2023-02-18T11:56:31;73024.00;;;-148.52;32.60
3254;BME280;1639;42.804;23.342;2023-02-18T11:58:58;73019.84;;;-148.52;32.84
3254;BME280;1639;42.804;23.342;2023-02-18T12:01:46;73015.72;;;-148.52;32.77
3254;BME280;1639;42.804;23.342;2023-02-18T12:04:16;73013.66;;;-148.52;32.80
3254;BME280;1639;42.804;23.342;2023-02-18T12:09:53;72988.81;;;-148.52;32.41
3254;BME280;1639;42.804;23.342;2023-02-18T12:12:31;72980.56;;;-148.52;32.23
3254;BME280;1639;42.804;23.342;2023-02-18T12:15:00;72964.00;;;-148.52;32.49
3254;BME280;1639;42.804;23.342;2023-02-18T12:25:39;72939.19;;;-148.52;31.94
3254;BME280;1639;42.804;23.342;2023-02-18T12:41:50;72908.16;;;-148.52;31.67
3254;BME280;1639;42.804;23.342;2023-02-18T12:44:43;72893.69;;;-148.52;31.50
3254;BME280;1639;42.804;23.342;2023-02-18T12:47:27;72877.16;;;-148.52;31.52
3254;BME280;1639;42.804;23.342;2023-02-18T13:00:46;72868.88;;;-148.52;30.58
3254;BME280;1639;42.804;23.342;2023-02-18T13:13:41;72858.53;;;-148.52;30.84
3254;BME280;1639;42.804;23.342;2023-02-18T13:16:13;72850.25;;;-148.52;31.11
3254;BME280;1639;42.804;23.342;2023-02-18T13:18:43;72842.00;;;-148.52;30.82
3254;BME280;1639;42.804;23.342;2023-02-18T13:21:15;72868.88;;;-148.52;30.72
3254;BME280;1639;42.804;23.342;2023-02-18T13:23:54;72866.81;;;-148.52;31.29
3254;BME280;1639;42.804;23.342;2023-02-18T13:26:20;72875.06;;;-148.52;30.92
3254;BME280;1639;42.804;23.342;2023-02-18T13:34:47;72873.00;;;-148.52;31.27
3254;BME280;1639;42.804;23.342;2023-02-18T13:40:24;72885.41;;;-148.52;31.20
3254;BME280;1639;42.804;23.342;2023-02-18T13:42:52;72897.81;;;-148.52;31.41
3254;BME280;1639;42.804;23.342;2023-02-18T13:45:29;72895.75;;;-148.52;31.66
3254;BME280;1639;42.804;23.342;2023-02-18T13:47:56;72881.28;;;-148.52;31.57
3254;BME280;1639;42.804;23.342;2023-02-18T13:50:24;72885.41;;;-148.52;31.55
3254;BME280;1639;42.804;23.342;2023-02-18T13:55:38;72906.09;;;-148.52;31.65
3254;BME280;1639;42.804;23.342;2023-02-18T13:58:12;72908.16;;;-148.52;32.21
3254;BME280;1639;42.804;23.342;2023-02-18T14:00:40;72912.31;;;-148.52;32.14
3254;BME280;1639;42.804;23.342;2023-02-18T14:03:30;72922.66;;;-148.52;32.21
3254;BME280;1639;42.804;23.342;2023-02-18T14:05:58;72928.84;;;-148.52;32.05
3254;BME280;1639;42.804;23.342;2023-02-18T14:08:34;72939.19;;;-148.52;32.65
3254;BME280;1639;42.804;23.342;2023-02-18T14:13:42;72955.75;;;-148.52;32.66
3254;BME280;1639;42.804;23.342;2023-02-18T14:16:11;72959.88;;;-148.52;33.16
3254;BME280;1639;42.804;23.342;2023-02-18T14:21:19;72961.94;;;-148.52;32.69
3254;BME280;1639;42.804;23.342;2023-02-18T14:23:56;72968.16;;;-148.52;32.57
3254;BME280;1639;42.804;23.342;2023-02-18T14:26:38;72968.16;;;-148.52;32.75
3254;BME280;1639;42.804;23.342;2023-02-18T14:31:44;72972.28;;;-148.52;32.99
3254;BME280;1639;42.804;23.342;2023-02-18T14:40:15;72964.00;;;-148.52;33.31
3254;BME280;1639;42.804;23.342;2023-02-18T14:51:20;72961.94;;;-148.52;32.92
3254;BME280;1639;42.804;23.342;2023-02-18T14:53:47;72957.81;;;-148.52;32.98
3254;BME280;1639;42.804;23.342;2023-02-18T14:56:15;72968.16;;;-148.52;33.59
3254;BME280;1639;42.804;23.342;2023-02-18T14:58:45;72972.28;;;-148.52;33.59
3254;BME280;1639;42.804;23.342;2023-02-18T15:01:20;72976.41;;;-148.52;33.50
3254;BME280;1639;42.804;23.342;2023-02-18T15:03:50;72974.34;;;-148.52;33.53
3254;BME280;1639;42.804;23.342;2023-02-18T15:09:01;72995.03;;;-148.52;33.70
3254;BME280;1639;42.804;23.342;2023-02-18T15:11:54;72988.81;;;-148.52;34.00
3254;BME280;1639;42.804;23.342;2023-02-18T15:14:24;73013.66;;;-148.52;33.91
3254;BME280;1639;42.804;23.342;2023-02-18T15:16:50;73036.41;;;-148.52;34.19
3254;BME280;1639;42.804;23.342;2023-02-18T15:19:22;73044.66;;;-148.52;34.37
3254;BME280;1639;42.804;23.342;2023-02-18T15:21:50;73052.94;;;-148.52;34.51
3254;BME280;1639;42.804;23.342;2023-02-18T15:26:45;73075.69;;;-148.52;34.99
3254;BME280;1639;42.804;23.342;2023-02-18T15:29:28;73086.03;;;-148.52;35.42
3254;BME280;1639;42.804;23.342;2023-02-18T15:31:56;73098.44;;;-148.52;35.82